createdAt,value
2018-07-20T00:01:32.168Z,23.96
2018-07-20T00:04:00.614Z,24.02
2018-07-20T00:06:29.002Z,24.03
2018-07-20T00:08:57.266Z,24.10
2018-07-20T00:11:25.550Z,24.09
2018-07-20T00:13:54.022Z,24.04
2018-07-20T00:16:22.297Z,24.05
2018-07-20T00:18:50.785Z,24.07
2018-07-20T00:21:19.062Z,24.06
2018-07-20T00:23:47.324Z,24.09
2018-07-20T00:26:15.600Z,24.06
2018-07-20T00:28:43.607Z,24.19
2018-07-20T00:31:12.054Z,24.16
2018-07-20T00:33:40.325Z,24.13
2018-07-20T00:36:08.609Z,24.20
2018-07-20T00:38:37.095Z,24.20
2018-07-20T00:41:05.469Z,24.21
2018-07-20T00:43:33.741Z,24.23
2018-07-20T00:46:02.026Z,24.21
2018-07-20T00:48:30.397Z,24.16
2018-07-20T00:50:58.764Z,24.18
2018-07-20T00:53:26.942Z,24.27
2018-07-20T00:55:55.326Z,24.14
2018-07-20T00:58:23.489Z,24.18
2018-07-20T01:00:51.680Z,24.17
2018-07-20T01:03:20.087Z,24.36
2018-07-20T01:05:48.408Z,24.28
2018-07-20T01:08:16.679Z,24.14
2018-07-20T01:10:45.074Z,24.16
2018-07-20T01:13:13.352Z,24.15
2018-07-20T01:15:41.938Z,24.12
2018-07-20T01:18:10.210Z,24.12
2018-07-20T01:20:38.590Z,24.08
2018-07-20T01:23:06.969Z,24.01
2018-07-20T01:25:35.225Z,24.03
2018-07-20T01:28:03.624Z,24.12
2018-07-20T01:30:32.002Z,24.18
2018-07-20T01:33:00.074Z,24.21
2018-07-20T01:35:28.334Z,24.17
2018-07-20T01:37:56.717Z,24.28
2018-07-20T01:40:24.651Z,24.31
2018-07-20T01:42:52.857Z,24.34
2018-07-20T01:45:21.341Z,24.31
2018-07-20T01:47:49.279Z,24.39
2018-07-20T01:50:17.792Z,24.34
2018-07-20T01:52:46.173Z,24.31
2018-07-20T01:55:14.651Z,24.11
2018-07-20T01:57:42.920Z,24.12
2018-07-20T02:00:11.605Z,24.07
2018-07-20T02:02:40.037Z,24.26
2018-07-20T02:05:08.569Z,24.21
2018-07-20T02:07:36.944Z,24.24
2018-07-20T02:10:05.217Z,24.37
2018-07-20T02:12:33.491Z,24.45
2018-07-20T02:15:01.777Z,24.21
2018-07-20T02:17:30.150Z,24.26
2018-07-20T02:19:58.536Z,24.13
2018-07-20T02:22:26.811Z,24.05
2018-07-20T02:24:55.278Z,24.13
2018-07-20T02:27:23.194Z,24.19
2018-07-20T02:29:51.642Z,24.12
2018-07-20T02:32:19.915Z,24.14
2018-07-20T02:34:48.091Z,24.09
2018-07-20T02:37:16.449Z,24.07
2018-07-20T02:39:44.742Z,24.11
2018-07-20T02:42:13.217Z,24.07
2018-07-20T02:44:41.482Z,24.09
2018-07-20T02:47:10.278Z,24.09
2018-07-20T02:49:38.557Z,24.06
2018-07-20T02:52:06.945Z,24.03
2018-07-20T02:54:35.311Z,24.10
2018-07-20T02:57:03.690Z,24.20
2018-07-20T02:59:31.949Z,24.16
2018-07-20T03:02:00.237Z,24.12
2018-07-20T03:04:28.622Z,24.28
2018-07-20T03:06:56.998Z,24.25
2018-07-20T03:09:25.380Z,24.21
2018-07-20T03:11:53.646Z,24.23
2018-07-20T03:14:22.021Z,24.25
2018-07-20T03:16:50.301Z,24.20
2018-07-20T03:19:18.569Z,24.28
2018-07-20T03:21:46.850Z,24.33
2018-07-20T03:24:15.222Z,24.40
2018-07-20T03:26:43.702Z,24.34
2018-07-20T03:29:11.980Z,24.29
2018-07-20T03:31:40.263Z,24.33
2018-07-20T03:34:08.640Z,24.21
2018-07-20T03:36:37.005Z,24.20
2018-07-20T03:39:07.385Z,24.26
2018-07-20T03:41:36.373Z,24.34
2018-07-20T03:44:04.531Z,24.29
2018-07-20T03:46:32.883Z,24.28
2018-07-20T03:49:01.217Z,24.17
2018-07-20T03:51:29.214Z,24.14
2018-07-20T03:53:57.394Z,24.11
2018-07-20T03:56:25.978Z,24.14
2018-07-20T03:58:54.302Z,24.12
2018-07-20T04:01:22.637Z,24.04
2018-07-20T04:03:50.802Z,23.85
2018-07-20T04:06:19.393Z,24.07
2018-07-20T04:08:47.771Z,24.00
2018-07-20T04:11:16.037Z,23.93
2018-07-20T04:13:44.313Z,24.04
2018-07-20T04:16:12.512Z,24.08
2018-07-20T04:18:40.761Z,24.05
2018-07-20T04:21:09.037Z,23.89
2018-07-20T04:23:37.422Z,23.95
2018-07-20T04:26:05.793Z,24.06
2018-07-20T04:28:34.177Z,24.02
2018-07-20T04:31:02.455Z,23.99
2018-07-20T04:33:30.824Z,23.96
2018-07-20T04:35:59.093Z,24.04
2018-07-20T04:38:27.376Z,23.94
2018-07-20T04:40:55.553Z,24.08
2018-07-20T04:43:23.473Z,24.14
2018-07-20T04:45:51.354Z,24.18
2018-07-20T04:48:19.666Z,24.17
2018-07-20T04:50:47.933Z,24.16
2018-07-20T04:53:16.209Z,24.20
2018-07-20T04:55:44.596Z,24.24
2018-07-20T04:58:12.961Z,24.22
2018-07-20T05:00:41.232Z,24.22
2018-07-20T05:03:09.521Z,24.34
2018-07-20T05:05:37.889Z,24.51
2018-07-20T05:08:06.345Z,24.44
2018-07-20T05:10:34.749Z,24.50
2018-07-20T05:13:02.929Z,24.51
2018-07-20T05:15:31.196Z,24.55
2018-07-20T05:17:59.405Z,24.60
2018-07-20T05:20:27.870Z,24.50
2018-07-20T05:22:56.238Z,24.50
2018-07-20T05:25:24.310Z,24.47
2018-07-20T05:27:52.889Z,24.53
2018-07-20T05:30:21.132Z,24.56
2018-07-20T05:32:49.095Z,24.61
2018-07-20T05:35:17.605Z,24.52
2018-07-20T05:37:45.972Z,24.56
2018-07-20T05:40:14.264Z,24.52
2018-07-20T05:42:42.534Z,24.53
2018-07-20T05:45:11.013Z,24.69
2018-07-20T05:47:39.198Z,24.70
2018-07-20T05:50:07.949Z,24.75
2018-07-20T05:52:36.353Z,24.80
2018-07-20T05:55:05.046Z,24.86
2018-07-20T05:57:33.517Z,24.89
2018-07-20T06:00:01.897Z,24.90
2018-07-20T06:02:30.179Z,24.92
2018-07-20T06:04:58.455Z,24.91
2018-07-20T06:07:30.389Z,24.90
2018-07-20T06:09:58.889Z,24.98
2018-07-20T06:12:27.097Z,25.10
2018-07-20T06:14:55.466Z,25.19
2018-07-20T06:17:23.812Z,25.25
2018-07-20T06:19:52.105Z,25.29
2018-07-20T06:22:20.478Z,25.39
2018-07-20T06:24:48.650Z,25.53
2018-07-20T06:27:17.159Z,25.50
2018-07-20T06:29:45.510Z,25.55
2018-07-20T06:32:13.873Z,25.61
2018-07-20T06:34:42.066Z,25.66
2018-07-20T06:37:10.546Z,25.71
2018-07-20T06:39:38.705Z,25.73
2018-07-20T06:42:07.106Z,25.75
2018-07-20T06:44:35.342Z,25.78
2018-07-20T06:47:03.862Z,25.79
2018-07-20T06:49:32.226Z,25.87
2018-07-20T06:52:00.502Z,25.86
2018-07-20T06:54:28.878Z,25.89
2018-07-20T06:56:57.153Z,25.96
2018-07-20T06:59:25.876Z,26.00
2018-07-20T07:01:54.534Z,26.20
2018-07-20T07:04:22.810Z,26.30
2018-07-20T07:06:50.766Z,26.36
2018-07-20T07:09:19.062Z,26.42
2018-07-20T07:11:47.422Z,26.40
2018-07-20T07:14:15.707Z,26.45
2018-07-20T07:16:43.980Z,26.55
2018-07-20T07:19:12.342Z,26.51
2018-07-20T07:21:40.598Z,26.59
2018-07-20T07:24:08.902Z,26.70
2018-07-20T07:26:37.399Z,26.77
2018-07-20T07:29:05.876Z,26.85
2018-07-20T07:31:34.230Z,26.87
2018-07-20T07:34:02.506Z,26.92
2018-07-20T07:36:30.781Z,27.00
2018-07-20T07:38:59.070Z,27.11
2018-07-20T07:41:27.446Z,27.27
2018-07-20T07:43:55.500Z,27.38
2018-07-20T07:46:23.430Z,27.42
2018-07-20T07:48:51.315Z,27.50
2018-07-20T07:51:19.242Z,27.56
2018-07-20T07:53:47.173Z,27.55
2018-07-20T07:56:15.555Z,27.64
2018-07-20T07:58:43.837Z,27.74
2018-07-20T08:01:12.197Z,27.87
2018-07-20T08:03:40.378Z,27.91
2018-07-20T08:06:08.766Z,27.93
2018-07-20T08:08:36.925Z,27.93
2018-07-20T08:11:05.418Z,27.98
2018-07-20T08:13:33.787Z,28.01
2018-07-20T08:16:02.061Z,27.98
2018-07-20T08:18:30.569Z,28.03
2018-07-20T08:20:59.025Z,28.10
2018-07-20T08:23:27.406Z,28.13
2018-07-20T08:25:55.377Z,28.19
2018-07-20T08:28:24.574Z,28.25
2018-07-20T08:30:52.850Z,28.33
2018-07-20T08:33:21.065Z,28.36
2018-07-20T08:35:49.503Z,28.39
2018-07-20T08:38:17.874Z,28.46
2018-07-20T08:40:46.165Z,28.45
2018-07-20T08:43:14.529Z,28.45
2018-07-20T08:45:42.805Z,28.55
2018-07-20T08:48:10.967Z,28.53
2018-07-20T08:50:39.255Z,28.68
2018-07-20T08:53:07.725Z,28.68
2018-07-20T08:55:35.942Z,28.73
2018-07-20T08:58:04.381Z,28.78
2018-07-20T09:00:32.562Z,28.79
2018-07-20T09:03:00.441Z,28.73
2018-07-20T09:05:28.301Z,28.77
2018-07-20T09:07:56.561Z,28.84
2018-07-20T09:10:24.834Z,28.84
2018-07-20T09:12:53.121Z,29.05
2018-07-20T09:15:21.497Z,29.13
2018-07-20T09:17:49.777Z,29.22
2018-07-20T09:20:17.840Z,29.25
2018-07-20T09:22:46.113Z,29.27
2018-07-20T09:25:14.211Z,29.34
2018-07-20T09:27:42.234Z,29.27
2018-07-20T09:30:10.633Z,29.25
2018-07-20T09:32:39.325Z,29.29
2018-07-20T09:35:07.512Z,29.43
2018-07-20T09:37:35.878Z,29.55
2018-07-20T09:40:04.564Z,29.60
2018-07-20T09:42:32.934Z,29.56
2018-07-20T09:45:01.206Z,29.53
2018-07-20T09:47:29.481Z,29.54
2018-07-20T09:49:57.653Z,29.46
2018-07-20T09:52:25.929Z,29.52
2018-07-20T09:54:54.317Z,29.53
2018-07-20T09:57:22.590Z,29.54
2018-07-20T09:59:50.922Z,29.53
2018-07-20T10:02:20.062Z,29.58
2018-07-20T10:04:48.344Z,29.81
2018-07-20T10:07:16.718Z,29.81
2018-07-20T10:09:45.000Z,29.83
2018-07-20T10:12:13.362Z,29.93
2018-07-20T10:14:41.750Z,29.86
2018-07-20T10:17:10.025Z,29.87
2018-07-20T10:19:38.392Z,29.81
2018-07-20T10:22:06.733Z,29.98
2018-07-20T10:24:35.149Z,30.09
2018-07-20T10:27:03.527Z,30.13
2018-07-20T10:29:31.793Z,29.96
2018-07-20T10:32:00.289Z,29.99
2018-07-20T10:34:28.549Z,29.89
2018-07-20T10:36:56.836Z,29.87
2018-07-20T10:39:25.041Z,29.83
2018-07-20T10:41:53.484Z,29.98
2018-07-20T10:44:22.074Z,30.03
2018-07-20T10:46:50.481Z,29.96
2018-07-20T10:49:18.829Z,29.99
2018-07-20T10:51:47.111Z,30.06
2018-07-20T10:54:14.929Z,29.95
2018-07-20T10:56:42.848Z,30.03
2018-07-20T10:59:10.742Z,30.02
2018-07-20T11:01:38.781Z,30.13
2018-07-20T11:04:06.566Z,30.12
2018-07-20T11:06:34.500Z,30.15
2018-07-20T11:09:02.633Z,30.11
2018-07-20T11:11:30.643Z,30.18
2018-07-20T11:13:58.542Z,30.16
2018-07-20T11:16:26.895Z,30.11
2018-07-20T11:18:55.376Z,30.21
2018-07-20T11:21:23.550Z,30.20
2018-07-20T11:23:51.813Z,30.24
2018-07-20T11:26:19.692Z,30.23
2018-07-20T11:28:47.580Z,30.36
2018-07-20T11:31:16.031Z,30.52
2018-07-20T11:33:44.208Z,30.58
2018-07-20T11:36:12.573Z,30.50
2018-07-20T11:38:40.862Z,30.46
2018-07-20T11:41:09.230Z,30.43
2018-07-20T11:43:37.500Z,30.35
2018-07-20T11:46:05.994Z,30.28
2018-07-20T11:48:33.845Z,30.37
2018-07-20T11:51:02.238Z,30.49
2018-07-20T11:53:30.505Z,30.45
2018-07-20T11:55:58.422Z,30.66
2018-07-20T11:58:26.757Z,30.55
2018-07-20T12:00:55.126Z,30.39
2018-07-20T12:03:23.102Z,30.54
2018-07-20T12:05:51.369Z,30.72
2018-07-20T12:08:19.654Z,30.81
2018-07-20T12:10:48.030Z,30.84
2018-07-20T12:13:16.311Z,30.72
2018-07-20T12:15:44.585Z,30.76
2018-07-20T12:18:12.869Z,30.94
2018-07-20T12:20:41.226Z,30.77
2018-07-20T12:23:09.492Z,30.77
2018-07-20T12:25:37.877Z,30.80
2018-07-20T12:28:06.250Z,30.80
2018-07-20T12:30:34.540Z,30.96
2018-07-20T12:33:03.009Z,30.90
2018-07-20T12:35:30.897Z,30.95
2018-07-20T12:37:59.154Z,30.93
2018-07-20T12:40:27.442Z,30.92
2018-07-20T12:42:55.614Z,31.06
2018-07-20T12:45:23.989Z,31.10
2018-07-20T12:47:52.366Z,31.04
2018-07-20T12:50:20.695Z,31.01
2018-07-20T12:52:49.114Z,30.93
2018-07-20T12:55:17.398Z,30.95
2018-07-20T12:57:45.661Z,31.14
2018-07-20T13:00:13.954Z,31.12
2018-07-20T13:02:42.226Z,30.83
2018-07-20T13:05:10.613Z,30.85
2018-07-20T13:07:38.866Z,30.74
2018-07-20T13:10:07.258Z,30.58
2018-07-20T13:12:35.513Z,30.48
2018-07-20T13:15:04.513Z,30.49
2018-07-20T13:17:32.993Z,30.51
2018-07-20T13:20:01.390Z,30.64
2018-07-20T13:22:29.216Z,30.59
2018-07-20T13:24:57.574Z,30.38
2018-07-20T13:27:25.693Z,30.53
2018-07-20T13:29:53.657Z,30.66
2018-07-20T13:32:21.855Z,30.50
2018-07-20T13:34:50.204Z,30.69
2018-07-20T13:37:18.594Z,30.53
2018-07-20T13:39:46.874Z,30.43
2018-07-20T13:42:15.342Z,30.44
2018-07-20T13:44:43.599Z,30.49
2018-07-20T13:47:11.790Z,30.57
2018-07-20T13:49:40.065Z,30.45
2018-07-20T13:52:08.343Z,30.56
2018-07-20T13:54:36.512Z,30.63
2018-07-20T13:57:04.889Z,30.78
2018-07-20T13:59:33.074Z,30.52
2018-07-20T14:02:00.897Z,30.48
2018-07-20T14:04:29.110Z,30.59
2018-07-20T14:06:57.636Z,30.38
2018-07-20T14:09:25.470Z,30.26
2018-07-20T14:11:53.828Z,30.36
2018-07-20T14:14:22.114Z,30.22
2018-07-20T14:16:50.505Z,30.45
2018-07-20T14:19:18.653Z,30.56
2018-07-20T14:21:47.038Z,30.50
2018-07-20T14:24:15.310Z,30.33
2018-07-20T14:26:43.696Z,30.26
2018-07-20T14:29:12.078Z,30.62
2018-07-20T14:31:40.578Z,30.66
2018-07-20T14:34:08.713Z,30.75
2018-07-20T14:36:36.892Z,30.60
2018-07-20T14:39:08.851Z,30.43
2018-07-20T14:41:37.128Z,30.25
2018-07-20T14:44:05.618Z,30.21
2018-07-20T14:46:33.890Z,30.26
2018-07-20T14:49:02.269Z,30.28
2018-07-20T14:51:30.637Z,30.08
2018-07-20T14:53:58.917Z,30.08
2018-07-20T14:56:27.289Z,30.13
2018-07-20T14:58:55.553Z,29.98
2018-07-20T15:01:23.869Z,29.90
2018-07-20T15:03:52.229Z,30.06
2018-07-20T15:06:20.494Z,30.15
2018-07-20T15:08:48.765Z,30.16
2018-07-20T15:11:16.646Z,30.22
2018-07-20T15:13:44.922Z,30.21
2018-07-20T15:16:13.194Z,30.20
2018-07-20T15:18:41.197Z,30.15
2018-07-20T15:21:09.637Z,30.02
2018-07-20T15:23:37.810Z,30.12
2018-07-20T15:26:05.882Z,29.94
2018-07-20T15:28:34.162Z,29.95
2018-07-20T15:31:02.437Z,29.89
2018-07-20T15:33:30.704Z,29.94
2018-07-20T15:35:59.081Z,29.80
2018-07-20T15:38:27.366Z,29.68
2018-07-20T15:40:55.182Z,29.55
2018-07-20T15:43:23.396Z,29.63
2018-07-20T15:46:05.767Z,29.62
2018-07-20T15:48:19.754Z,29.54
2018-07-20T15:50:48.026Z,29.51
2018-07-20T15:53:43.351Z,29.56
2018-07-20T15:55:44.473Z,29.54
2018-07-20T15:58:12.767Z,29.35
2018-07-20T16:00:41.016Z,29.40
2018-07-20T16:03:09.196Z,29.46
2018-07-20T16:05:37.408Z,29.33
2018-07-20T16:08:05.651Z,29.44
2018-07-20T16:10:34.045Z,29.39
2018-07-20T16:13:01.897Z,29.35
2018-07-20T16:15:30.280Z,29.27
2018-07-20T16:17:58.651Z,29.26
2018-07-20T16:20:27.089Z,29.17
2018-07-20T16:22:55.302Z,29.04
2018-07-20T16:25:23.674Z,28.92
2018-07-20T16:27:52.061Z,28.84
2018-07-20T16:30:19.942Z,29.10
2018-07-20T16:32:47.790Z,28.95
2018-07-20T16:35:16.028Z,28.77
2018-07-20T16:37:44.237Z,28.79
2018-07-20T16:40:12.114Z,28.71
2018-07-20T16:42:39.952Z,28.67
2018-07-20T16:45:08.347Z,28.62
2018-07-20T16:47:36.613Z,28.59
2018-07-20T16:50:05.147Z,28.62
2018-07-20T16:52:33.023Z,28.52
2018-07-20T16:55:00.862Z,28.72
2018-07-20T16:57:28.789Z,28.49
2018-07-20T16:59:56.634Z,28.38
2018-07-20T17:02:24.489Z,28.13
2018-07-20T17:04:52.366Z,28.10
2018-07-20T17:07:20.206Z,28.03
2018-07-20T17:09:48.042Z,27.99
2018-07-20T17:12:15.872Z,28.13
2018-07-20T17:14:43.758Z,28.01
2018-07-20T17:17:11.602Z,28.05
2018-07-20T17:19:39.572Z,27.92
2018-07-20T17:22:07.462Z,27.94
2018-07-20T17:24:35.277Z,27.68
2018-07-20T17:27:03.340Z,27.73
2018-07-20T17:29:31.198Z,27.69
2018-07-20T17:31:59.090Z,27.71
2018-07-20T17:34:26.950Z,27.59
2018-07-20T17:36:54.798Z,27.69
2018-07-20T17:39:22.725Z,27.64
2018-07-20T17:41:50.542Z,27.67
2018-07-20T17:44:18.357Z,27.59
2018-07-20T17:46:46.244Z,27.62
2018-07-20T17:49:14.091Z,27.67
2018-07-20T17:51:41.962Z,27.54
2018-07-20T17:54:09.994Z,27.73
2018-07-20T17:56:37.837Z,27.73
2018-07-20T17:59:05.665Z,27.53
2018-07-20T18:01:33.681Z,27.39
2018-07-20T18:04:01.534Z,27.56
2018-07-20T18:06:29.361Z,27.57
2018-07-20T18:08:57.216Z,27.38
2018-07-20T18:11:25.073Z,27.28
2018-07-20T18:13:52.917Z,27.26
2018-07-20T18:16:21.070Z,27.34
2018-07-20T18:18:48.889Z,27.28
2018-07-20T18:21:16.738Z,27.35
2018-07-20T18:23:44.684Z,27.34
2018-07-20T18:26:12.525Z,27.22
2018-07-20T18:28:40.371Z,27.20
2018-07-20T18:31:08.305Z,27.17
2018-07-20T18:33:36.238Z,27.04
2018-07-20T18:36:04.153Z,26.98
2018-07-20T18:38:32.010Z,27.05
2018-07-20T18:40:59.841Z,26.99
2018-07-20T18:43:27.677Z,26.79
2018-07-20T18:45:55.654Z,26.75
2018-07-20T18:48:23.578Z,26.62
2018-07-20T18:50:52.071Z,26.72
2018-07-20T18:53:20.334Z,26.77
2018-07-20T18:55:48.199Z,26.81
2018-07-20T18:58:16.030Z,26.76
2018-07-20T19:00:43.875Z,26.66
2018-07-20T19:03:12.114Z,26.67
2018-07-20T19:05:40.383Z,26.49
2018-07-20T19:08:08.330Z,26.54
2018-07-20T19:10:36.840Z,26.39
2018-07-20T19:13:05.214Z,26.34
2018-07-20T19:15:33.389Z,26.36
2018-07-20T19:18:01.560Z,26.34
2018-07-20T19:20:29.834Z,26.28
2018-07-20T19:22:58.101Z,26.22
2018-07-20T19:25:26.387Z,26.23
2018-07-20T19:27:54.661Z,26.18
2018-07-20T19:30:23.025Z,26.14
2018-07-20T19:32:51.214Z,26.23
2018-07-20T19:35:19.490Z,26.18
2018-07-20T19:37:47.867Z,26.17
2018-07-20T19:40:15.751Z,26.23
2018-07-20T19:42:44.000Z,26.26
2018-07-20T19:45:12.183Z,26.27
2018-07-20T19:47:40.449Z,26.20
2018-07-20T19:50:08.833Z,26.24
2018-07-20T19:52:37.101Z,26.26
2018-07-20T19:55:05.486Z,26.23
2018-07-20T19:57:33.662Z,26.20
2018-07-20T20:00:02.039Z,26.16
2018-07-20T20:02:30.296Z,26.04
2018-07-20T20:04:58.476Z,26.03
2018-07-20T20:07:26.757Z,26.06
2018-07-20T20:09:55.129Z,25.97
2018-07-20T20:12:23.413Z,25.86
2018-07-20T20:14:51.792Z,25.69
2018-07-20T20:17:19.966Z,25.50
2018-07-20T20:19:48.336Z,25.63
2018-07-20T20:22:16.712Z,25.69
2018-07-20T20:24:45.094Z,25.74
2018-07-20T20:27:13.169Z,25.80
2018-07-20T20:29:41.439Z,25.82
2018-07-20T20:32:09.850Z,25.90
2018-07-20T20:34:38.152Z,25.94
2018-07-20T20:37:06.586Z,25.96
2018-07-20T20:39:34.753Z,25.92
2018-07-20T20:42:02.626Z,25.90
2018-07-20T20:44:30.894Z,25.93
2018-07-20T20:46:59.266Z,25.87
2018-07-20T20:49:27.118Z,26.13
2018-07-20T20:51:55.505Z,26.16
2018-07-20T20:54:23.681Z,26.19
2018-07-20T20:56:51.853Z,26.10
2018-07-20T20:59:20.183Z,26.10
2018-07-20T21:01:48.406Z,26.02
2018-07-20T21:04:16.703Z,26.14
2018-07-20T21:06:44.953Z,26.16
2018-07-20T21:09:13.225Z,26.18
2018-07-20T21:11:41.556Z,26.21
2018-07-20T21:14:09.785Z,26.27
2018-07-20T21:16:38.058Z,26.31
2018-07-20T21:19:06.230Z,26.36
2018-07-20T21:21:34.094Z,26.39
2018-07-20T21:24:02.581Z,26.41
2018-07-20T21:26:30.845Z,26.34
2018-07-20T21:28:59.124Z,26.30
2018-07-20T21:31:27.501Z,26.28
2018-07-20T21:33:55.985Z,26.23
2018-07-20T21:36:24.157Z,26.15
2018-07-20T21:38:53.566Z,26.26
2018-07-20T21:41:21.741Z,26.38
2018-07-20T21:43:49.901Z,26.36
2018-07-20T21:46:18.284Z,26.37
2018-07-20T21:48:46.691Z,26.41
2018-07-20T21:51:14.933Z,26.33
2018-07-20T21:53:43.209Z,26.33
2018-07-20T21:56:11.382Z,26.19
2018-07-20T21:58:39.756Z,26.23
2018-07-20T22:01:07.896Z,26.26
2018-07-20T22:03:36.114Z,26.21
2018-07-20T22:06:04.391Z,26.24
2018-07-20T22:08:32.469Z,26.23
2018-07-20T22:11:00.832Z,26.07
2018-07-20T22:13:29.217Z,26.05
2018-07-20T22:15:57.382Z,25.94
2018-07-20T22:18:25.258Z,25.91
2018-07-20T22:20:53.068Z,25.94
2018-07-20T22:23:21.361Z,25.89
2018-07-20T22:25:49.769Z,25.99
2018-07-20T22:28:17.950Z,26.01
2018-07-20T22:30:46.218Z,26.17
2018-07-20T22:33:14.607Z,26.15
2018-07-20T22:35:42.869Z,26.18
2018-07-20T22:38:11.029Z,26.23
2018-07-20T22:40:38.874Z,26.34
2018-07-20T22:43:07.194Z,26.35
2018-07-20T22:45:35.461Z,26.20
2018-07-20T22:48:03.519Z,26.08
2018-07-20T22:50:31.705Z,25.98
2018-07-20T22:53:00.082Z,25.96
2018-07-20T22:55:28.355Z,25.79
2018-07-20T22:57:56.633Z,25.82
2018-07-20T23:00:25.010Z,25.86
2018-07-20T23:02:53.208Z,25.86
2018-07-20T23:05:21.464Z,25.85
2018-07-20T23:07:49.734Z,25.90
2018-07-20T23:10:17.909Z,25.89
2018-07-20T23:12:46.303Z,25.87
2018-07-20T23:15:14.670Z,25.90
2018-07-20T23:17:43.041Z,25.92
2018-07-20T23:20:11.413Z,26.00
2018-07-20T23:22:39.596Z,25.95
2018-07-20T23:25:07.873Z,25.92
2018-07-20T23:27:36.037Z,25.84
2018-07-20T23:30:04.839Z,25.84
2018-07-20T23:32:33.101Z,25.75
2018-07-20T23:35:01.393Z,25.76
2018-07-20T23:37:29.881Z,25.72
2018-07-20T23:39:58.030Z,25.68
2018-07-20T23:42:26.306Z,25.55
2018-07-20T23:44:54.589Z,25.59
2018-07-20T23:47:22.853Z,25.63
2018-07-20T23:49:50.988Z,25.58
2018-07-20T23:52:19.296Z,25.60
2018-07-20T23:54:47.581Z,25.61
2018-07-20T23:57:15.854Z,25.70
2018-07-20T23:59:44.053Z,25.63
